Terminal Aerodrome Forecast
Issued by NWS Tiyan, Guam

Home | Current Version | Previous Version | Text Only | Print | Product List | Glossary On
Versions: 1 2 3 4 5 6 7 8 9 10 11 12 13 14 15 16 17 18 19 20 21 22 23 24 25 26 27 28 29
000
FTPQ31 PGUM 210500
TAFPQ
TAF
PGUM 210525Z 2106/2212 35008KT P6SM VCTS SCT018CB SCT080
      TEMPO 2106/2108 5SM -TSRA SCT016CB BKN030
     FM210900 07007KT P6SM VCSH SCT018 SCT040 BKN120=

USA.gov is the U.S. government's official web portal to all federal, state and local government web resources and services.